sensor_id;sensor_type;location;lat;lon;timestamp;P1;durP1;ratioP1;P2;durP2;ratioP2
48574;SDS011;34352;51.084;3.712;2023-04-24T00:00:32;41.65;;;23.92;;
48574;SDS011;34352;51.084;3.712;2023-04-24T00:02:57;36.60;;;23.48;;
48574;SDS011;34352;51.084;3.712;2023-04-24T00:05:23;34.00;;;22.20;;
48574;SDS011;34352;51.084;3.712;2023-04-24T00:07:50;34.28;;;23.35;;
48574;SDS011;34352;51.084;3.712;2023-04-24T00:10:21;35.17;;;21.77;;
48574;SDS011;34352;51.084;3.712;2023-04-24T00:12:47;43.00;;;23.38;;
48574;SDS011;34352;51.084;3.712;2023-04-24T00:15:13;35.60;;;23.65;;
48574;SDS011;34352;51.084;3.712;2023-04-24T00:17:38;35.70;;;22.25;;
48574;SDS011;34352;51.084;3.712;2023-04-24T00:20:04;38.47;;;23.45;;
48574;SDS011;34352;51.084;3.712;2023-04-24T00:22:33;36.20;;;23.95;;
48574;SDS011;34352;51.084;3.712;2023-04-24T00:24:58;44.63;;;22.88;;
48574;SDS011;34352;51.084;3.712;2023-04-24T00:27:24;31.10;;;20.75;;
48574;SDS011;34352;51.084;3.712;2023-04-24T00:29:50;38.40;;;21.85;;
48574;SDS011;34352;51.084;3.712;2023-04-24T00:32:17;39.03;;;22.13;;
48574;SDS011;34352;51.084;3.712;2023-04-24T00:34:43;34.25;;;20.88;;
48574;SDS011;34352;51.084;3.712;2023-04-24T00:37:09;32.42;;;20.88;;
48574;SDS011;34352;51.084;3.712;2023-04-24T00:39:35;37.15;;;22.00;;
48574;SDS011;34352;51.084;3.712;2023-04-24T00:42:00;36.40;;;20.52;;
48574;SDS011;34352;51.084;3.712;2023-04-24T00:44:26;31.38;;;20.00;;
48574;SDS011;34352;51.084;3.712;2023-04-24T00:46:54;29.05;;;19.60;;
48574;SDS011;34352;51.084;3.712;2023-04-24T00:49:20;30.98;;;20.00;;
48574;SDS011;34352;51.084;3.712;2023-04-24T00:51:47;26.15;;;18.75;;
48574;SDS011;34352;51.084;3.712;2023-04-24T00:54:14;24.30;;;17.45;;
48574;SDS011;34352;51.084;3.712;2023-04-24T00:56:41;25.83;;;17.52;;
48574;SDS011;34352;51.084;3.712;2023-04-24T00:59:08;19.80;;;14.90;;
48574;SDS011;34352;51.084;3.712;2023-04-24T01:01:36;21.77;;;15.00;;
48574;SDS011;34352;51.084;3.712;2023-04-24T01:04:03;20.13;;;15.60;;
48574;SDS011;34352;51.084;3.712;2023-04-24T01:06:30;21.13;;;14.80;;
48574;SDS011;34352;51.084;3.712;2023-04-24T01:08:56;20.17;;;14.60;;
48574;SDS011;34352;51.084;3.712;2023-04-24T01:11:24;18.67;;;13.23;;
48574;SDS011;34352;51.084;3.712;2023-04-24T01:13:51;22.98;;;16.15;;
48574;SDS011;34352;51.084;3.712;2023-04-24T01:16:17;22.02;;;15.13;;
48574;SDS011;34352;51.084;3.712;2023-04-24T01:18:46;24.20;;;16.35;;
48574;SDS011;34352;51.084;3.712;2023-04-24T01:21:15;27.75;;;17.88;;
48574;SDS011;34352;51.084;3.712;2023-04-24T01:23:42;26.25;;;17.95;;
48574;SDS011;34352;51.084;3.712;2023-04-24T01:26:09;25.50;;;17.75;;
48574;SDS011;34352;51.084;3.712;2023-04-24T01:28:34;26.02;;;16.63;;
48574;SDS011;34352;51.084;3.712;2023-04-24T01:31:02;25.88;;;17.83;;
48574;SDS011;34352;51.084;3.712;2023-04-24T01:33:28;26.17;;;17.67;;
48574;SDS011;34352;51.084;3.712;2023-04-24T01:35:55;28.30;;;17.92;;
48574;SDS011;34352;51.084;3.712;2023-04-24T01:38:21;27.15;;;17.98;;
48574;SDS011;34352;51.084;3.712;2023-04-24T01:40:50;30.58;;;18.40;;
48574;SDS011;34352;51.084;3.712;2023-04-24T01:43:17;30.60;;;19.70;;
48574;SDS011;34352;51.084;3.712;2023-04-24T01:45:45;30.17;;;19.55;;
48574;SDS011;34352;51.084;3.712;2023-04-24T01:48:13;32.50;;;20.08;;
48574;SDS011;34352;51.084;3.712;2023-04-24T01:50:44;33.95;;;21.00;;
48574;SDS011;34352;51.084;3.712;2023-04-24T01:53:12;33.13;;;20.55;;
48574;SDS011;34352;51.084;3.712;2023-04-24T01:55:38;35.25;;;20.60;;
48574;SDS011;34352;51.084;3.712;2023-04-24T01:58:04;34.80;;;20.42;;
48574;SDS011;34352;51.084;3.712;2023-04-24T02:00:29;36.58;;;22.20;;
48574;SDS011;34352;51.084;3.712;2023-04-24T02:02:56;34.03;;;21.77;;
48574;SDS011;34352;51.084;3.712;2023-04-24T02:05:23;38.88;;;23.48;;
48574;SDS011;34352;51.084;3.712;2023-04-24T02:07:49;34.50;;;21.75;;
48574;SDS011;34352;51.084;3.712;2023-04-24T02:10:14;36.67;;;22.88;;
48574;SDS011;34352;51.084;3.712;2023-04-24T02:12:40;38.55;;;23.27;;
48574;SDS011;34352;51.084;3.712;2023-04-24T02:15:07;38.42;;;23.95;;
48574;SDS011;34352;51.084;3.712;2023-04-24T02:17:34;42.35;;;25.63;;
48574;SDS011;34352;51.084;3.712;2023-04-24T02:20:00;39.17;;;24.83;;
48574;SDS011;34352;51.084;3.712;2023-04-24T02:22:27;42.88;;;26.80;;
48574;SDS011;34352;51.084;3.712;2023-04-24T02:24:54;44.55;;;27.05;;
48574;SDS011;34352;51.084;3.712;2023-04-24T02:27:22;34.35;;;21.58;;
48574;SDS011;34352;51.084;3.712;2023-04-24T02:29:47;37.58;;;23.05;;
48574;SDS011;34352;51.084;3.712;2023-04-24T02:32:13;38.72;;;23.98;;
48574;SDS011;34352;51.084;3.712;2023-04-24T02:37:30;38.72;;;23.90;;
48574;SDS011;34352;51.084;3.712;2023-04-24T02:39:56;37.92;;;20.70;;
48574;SDS011;34352;51.084;3.712;2023-04-24T02:42:21;34.50;;;19.60;;
48574;SDS011;34352;51.084;3.712;2023-04-24T02:44:48;28.90;;;16.38;;
48574;SDS011;34352;51.084;3.712;2023-04-24T02:47:15;31.38;;;15.73;;
48574;SDS011;34352;51.084;3.712;2023-04-24T02:52:10;24.63;;;13.57;;
48574;SDS011;34352;51.084;3.712;2023-04-24T02:54:35;22.20;;;11.23;;
48574;SDS011;34352;51.084;3.712;2023-04-24T02:57:01;20.20;;;10.98;;
48574;SDS011;34352;51.084;3.712;2023-04-24T02:59:28;27.73;;;10.07;;
48574;SDS011;34352;51.084;3.712;2023-04-24T03:01:54;19.92;;;9.05;;
48574;SDS011;34352;51.084;3.712;2023-04-24T03:04:20;19.05;;;8.93;;
48574;SDS011;34352;51.084;3.712;2023-04-24T03:06:46;16.60;;;8.15;;
48574;SDS011;34352;51.084;3.712;2023-04-24T03:09:11;16.85;;;8.95;;
48574;SDS011;34352;51.084;3.712;2023-04-24T03:11:37;16.67;;;8.77;;
48574;SDS011;34352;51.084;3.712;2023-04-24T03:14:02;13.90;;;8.45;;
48574;SDS011;34352;51.084;3.712;2023-04-24T03:16:28;19.83;;;10.30;;
48574;SDS011;34352;51.084;3.712;2023-04-24T03:18:54;18.08;;;10.77;;
48574;SDS011;34352;51.084;3.712;2023-04-24T03:21:20;20.52;;;11.93;;
48574;SDS011;34352;51.084;3.712;2023-04-24T03:23:51;26.25;;;13.52;;
48574;SDS011;34352;51.084;3.712;2023-04-24T03:26:17;25.17;;;13.77;;
48574;SDS011;34352;51.084;3.712;2023-04-24T03:28:44;28.83;;;14.15;;
48574;SDS011;34352;51.084;3.712;2023-04-24T03:31:09;20.67;;;13.65;;
48574;SDS011;34352;51.084;3.712;2023-04-24T03:33:36;25.77;;;13.43;;
48574;SDS011;34352;51.084;3.712;2023-04-24T03:36:03;27.92;;;14.35;;
48574;SDS011;34352;51.084;3.712;2023-04-24T03:38:30;26.80;;;14.68;;
48574;SDS011;34352;51.084;3.712;2023-04-24T03:40:55;31.75;;;16.52;;
48574;SDS011;34352;51.084;3.712;2023-04-24T03:43:21;29.85;;;15.45;;
48574;SDS011;34352;51.084;3.712;2023-04-24T03:45:47;35.13;;;17.30;;
48574;SDS011;34352;51.084;3.712;2023-04-24T03:48:12;29.63;;;16.60;;
48574;SDS011;34352;51.084;3.712;2023-04-24T03:53:07;35.03;;;17.67;;
48574;SDS011;34352;51.084;3.712;2023-04-24T03:55:33;30.55;;;15.55;;
48574;SDS011;34352;51.084;3.712;2023-04-24T03:57:58;39.65;;;17.52;;
48574;SDS011;34352;51.084;3.712;2023-04-24T04:00:24;32.05;;;17.60;;
48574;SDS011;34352;51.084;3.712;2023-04-24T04:02:51;28.45;;;16.00;;
48574;SDS011;34352;51.084;3.712;2023-04-24T04:05:16;30.35;;;17.42;;
48574;SDS011;34352;51.084;3.712;2023-04-24T04:07:42;41.20;;;17.33;;
48574;SDS011;34352;51.084;3.712;2023-04-24T04:10:08;28.95;;;16.48;;
48574;SDS011;34352;51.084;3.712;2023-04-24T04:12:36;38.20;;;16.92;;
48574;SDS011;34352;51.084;3.712;2023-04-24T04:15:02;37.83;;;17.75;;
48574;SDS011;34352;51.084;3.712;2023-04-24T04:17:28;33.70;;;17.60;;
48574;SDS011;34352;51.084;3.712;2023-04-24T04:19:54;34.25;;;16.92;;
48574;SDS011;34352;51.084;3.712;2023-04-24T04:22:22;30.67;;;16.85;;
48574;SDS011;34352;51.084;3.712;2023-04-24T04:24:49;29.25;;;15.88;;
48574;SDS011;34352;51.084;3.712;2023-04-24T04:27:16;30.00;;;16.00;;
48574;SDS011;34352;51.084;3.712;2023-04-24T04:29:43;32.90;;;17.30;;
48574;SDS011;34352;51.084;3.712;2023-04-24T04:32:09;25.83;;;16.27;;
48574;SDS011;34352;51.084;3.712;2023-04-24T04:34:35;31.88;;;17.23;;
48574;SDS011;34352;51.084;3.712;2023-04-24T04:37:02;31.35;;;16.42;;
48574;SDS011;34352;51.084;3.712;2023-04-24T04:39:35;35.55;;;17.27;;
48574;SDS011;34352;51.084;3.712;2023-04-24T04:42:04;29.33;;;15.55;;
48574;SDS011;34352;51.084;3.712;2023-04-24T04:47:02;30.90;;;16.48;;
48574;SDS011;34352;51.084;3.712;2023-04-24T04:49:30;28.48;;;16.70;;
48574;SDS011;34352;51.084;3.712;2023-04-24T04:51:58;31.23;;;16.42;;
48574;SDS011;34352;51.084;3.712;2023-04-24T04:54:23;30.52;;;16.92;;
48574;SDS011;34352;51.084;3.712;2023-04-24T04:56:51;31.75;;;17.20;;
48574;SDS011;34352;51.084;3.712;2023-04-24T04:59:17;32.10;;;16.08;;
48574;SDS011;34352;51.084;3.712;2023-04-24T05:01:43;33.78;;;17.33;;
48574;SDS011;34352;51.084;3.712;2023-04-24T05:04:08;30.73;;;17.30;;
48574;SDS011;34352;51.084;3.712;2023-04-24T05:06:34;28.33;;;17.02;;
48574;SDS011;34352;51.084;3.712;2023-04-24T05:09:00;32.45;;;17.35;;
48574;SDS011;34352;51.084;3.712;2023-04-24T05:11:26;31.90;;;17.30;;
48574;SDS011;34352;51.084;3.712;2023-04-24T05:13:52;35.95;;;17.98;;
48574;SDS011;34352;51.084;3.712;2023-04-24T05:16:20;39.65;;;18.95;;
48574;SDS011;34352;51.084;3.712;2023-04-24T05:18:46;38.85;;;19.92;;
48574;SDS011;34352;51.084;3.712;2023-04-24T05:21:12;37.97;;;19.65;;
48574;SDS011;34352;51.084;3.712;2023-04-24T05:23:38;41.33;;;18.92;;
48574;SDS011;34352;51.084;3.712;2023-04-24T05:26:04;30.90;;;18.65;;
48574;SDS011;34352;51.084;3.712;2023-04-24T05:28:30;42.75;;;18.98;;
48574;SDS011;34352;51.084;3.712;2023-04-24T05:30:56;40.40;;;20.55;;
48574;SDS011;34352;51.084;3.712;2023-04-24T05:33:23;35.78;;;19.48;;
48574;SDS011;34352;51.084;3.712;2023-04-24T05:35:50;40.90;;;20.80;;
48574;SDS011;34352;51.084;3.712;2023-04-24T05:38:17;41.40;;;20.63;;
48574;SDS011;34352;51.084;3.712;2023-04-24T05:40:44;43.17;;;20.90;;
48574;SDS011;34352;51.084;3.712;2023-04-24T05:43:11;37.47;;;20.77;;
48574;SDS011;34352;51.084;3.712;2023-04-24T05:45:37;44.83;;;21.48;;
48574;SDS011;34352;51.084;3.712;2023-04-24T05:48:04;44.75;;;21.67;;
48574;SDS011;34352;51.084;3.712;2023-04-24T05:50:32;39.67;;;22.02;;
48574;SDS011;34352;51.084;3.712;2023-04-24T05:52:58;43.75;;;21.58;;
48574;SDS011;34352;51.084;3.712;2023-04-24T05:55:25;38.80;;;21.25;;
48574;SDS011;34352;51.084;3.712;2023-04-24T05:57:51;41.72;;;21.48;;
48574;SDS011;34352;51.084;3.712;2023-04-24T06:00:18;45.13;;;20.58;;
48574;SDS011;34352;51.084;3.712;2023-04-24T06:02:45;46.42;;;21.63;;
48574;SDS011;34352;51.084;3.712;2023-04-24T06:05:12;46.78;;;21.80;;
48574;SDS011;34352;51.084;3.712;2023-04-24T06:07:38;47.63;;;22.23;;
48574;SDS011;34352;51.084;3.712;2023-04-24T06:10:05;42.50;;;21.02;;
48574;SDS011;34352;51.084;3.712;2023-04-24T06:12:32;36.60;;;21.25;;
48574;SDS011;34352;51.084;3.712;2023-04-24T06:15:00;43.72;;;22.17;;
48574;SDS011;34352;51.084;3.712;2023-04-24T06:17:25;41.38;;;21.33;;
48574;SDS011;34352;51.084;3.712;2023-04-24T06:19:51;48.90;;;21.92;;
48574;SDS011;34352;51.084;3.712;2023-04-24T06:22:17;40.13;;;20.25;;
48574;SDS011;34352;51.084;3.712;2023-04-24T06:24:42;44.50;;;19.58;;
48574;SDS011;34352;51.084;3.712;2023-04-24T06:27:10;39.65;;;20.02;;
48574;SDS011;34352;51.084;3.712;2023-04-24T06:29:39;40.42;;;19.30;;
48574;SDS011;34352;51.084;3.712;2023-04-24T06:32:06;33.78;;;19.83;;
48574;SDS011;34352;51.084;3.712;2023-04-24T06:34:31;40.78;;;19.00;;
48574;SDS011;34352;51.084;3.712;2023-04-24T06:36:59;45.55;;;16.52;;
48574;SDS011;34352;51.084;3.712;2023-04-24T06:39:33;32.17;;;14.85;;
48574;SDS011;34352;51.084;3.712;2023-04-24T06:42:01;30.58;;;13.30;;
48574;SDS011;34352;51.084;3.712;2023-04-24T06:44:27;28.83;;;12.18;;
48574;SDS011;34352;51.084;3.712;2023-04-24T06:46:53;25.10;;;12.55;;
48574;SDS011;34352;51.084;3.712;2023-04-24T06:49:18;29.70;;;12.18;;
48574;SDS011;34352;51.084;3.712;2023-04-24T06:51:46;28.67;;;12.77;;
48574;SDS011;34352;51.084;3.712;2023-04-24T06:54:11;24.75;;;12.23;;
48574;SDS011;34352;51.084;3.712;2023-04-24T06:56:37;27.23;;;12.43;;
48574;SDS011;34352;51.084;3.712;2023-04-24T06:59:03;20.58;;;11.25;;
48574;SDS011;34352;51.084;3.712;2023-04-24T07:01:29;23.55;;;10.40;;
48574;SDS011;34352;51.084;3.712;2023-04-24T07:03:56;23.25;;;10.50;;
48574;SDS011;34352;51.084;3.712;2023-04-24T07:06:21;24.85;;;10.93;;
48574;SDS011;34352;51.084;3.712;2023-04-24T07:08:48;26.33;;;10.93;;
48574;SDS011;34352;51.084;3.712;2023-04-24T07:11:14;27.92;;;11.30;;
48574;SDS011;34352;51.084;3.712;2023-04-24T07:13:40;23.65;;;9.52;;
48574;SDS011;34352;51.084;3.712;2023-04-24T07:16:07;29.08;;;11.10;;
48574;SDS011;34352;51.084;3.712;2023-04-24T07:18:33;19.05;;;9.10;;
48574;SDS011;34352;51.084;3.712;2023-04-24T07:20:59;16.33;;;6.53;;
48574;SDS011;34352;51.084;3.712;2023-04-24T07:23:26;19.83;;;7.40;;
48574;SDS011;34352;51.084;3.712;2023-04-24T07:25:51;23.42;;;8.25;;
48574;SDS011;34352;51.084;3.712;2023-04-24T07:28:17;18.45;;;6.88;;
48574;SDS011;34352;51.084;3.712;2023-04-24T07:30:43;19.33;;;6.70;;
48574;SDS011;34352;51.084;3.712;2023-04-24T07:33:09;20.63;;;6.90;;
48574;SDS011;34352;51.084;3.712;2023-04-24T07:35:38;22.00;;;7.07;;
48574;SDS011;34352;51.084;3.712;2023-04-24T07:38:03;22.55;;;6.45;;
48574;SDS011;34352;51.084;3.712;2023-04-24T07:40:29;20.98;;;6.78;;
48574;SDS011;34352;51.084;3.712;2023-04-24T07:42:55;17.05;;;6.40;;
48574;SDS011;34352;51.084;3.712;2023-04-24T07:45:21;15.98;;;6.65;;
48574;SDS011;34352;51.084;3.712;2023-04-24T07:47:50;21.05;;;7.45;;
48574;SDS011;34352;51.084;3.712;2023-04-24T07:52:44;21.90;;;8.23;;
48574;SDS011;34352;51.084;3.712;2023-04-24T07:55:10;19.45;;;7.95;;
48574;SDS011;34352;51.084;3.712;2023-04-24T07:57:36;21.90;;;8.05;;
48574;SDS011;34352;51.084;3.712;2023-04-24T08:00:03;25.23;;;8.07;;
48574;SDS011;34352;51.084;3.712;2023-04-24T08:02:30;18.90;;;8.07;;
48574;SDS011;34352;51.084;3.712;2023-04-24T08:04:56;16.85;;;7.40;;
48574;SDS011;34352;51.084;3.712;2023-04-24T08:07:22;14.63;;;6.65;;
48574;SDS011;34352;51.084;3.712;2023-04-24T08:09:48;16.10;;;6.10;;
48574;SDS011;34352;51.084;3.712;2023-04-24T08:12:15;13.27;;;5.28;;
48574;SDS011;34352;51.084;3.712;2023-04-24T08:14:42;9.05;;;4.70;;
48574;SDS011;34352;51.084;3.712;2023-04-24T08:17:07;14.77;;;4.88;;
48574;SDS011;34352;51.084;3.712;2023-04-24T08:19:37;15.55;;;5.20;;
48574;SDS011;34352;51.084;3.712;2023-04-24T08:22:07;16.45;;;6.18;;
48574;SDS011;34352;51.084;3.712;2023-04-24T08:24:33;13.88;;;5.93;;
48574;SDS011;34352;51.084;3.712;2023-04-24T08:26:58;15.43;;;5.85;;
48574;SDS011;34352;51.084;3.712;2023-04-24T08:29:25;16.38;;;5.57;;
48574;SDS011;34352;51.084;3.712;2023-04-24T08:31:51;14.40;;;5.10;;
48574;SDS011;34352;51.084;3.712;2023-04-24T08:34:19;10.10;;;4.80;;
48574;SDS011;34352;51.084;3.712;2023-04-24T08:36:45;12.48;;;4.38;;
48574;SDS011;34352;51.084;3.712;2023-04-24T08:39:12;12.48;;;5.05;;
48574;SDS011;34352;51.084;3.712;2023-04-24T08:41:37;12.65;;;4.88;;
48574;SDS011;34352;51.084;3.712;2023-04-24T08:44:07;12.38;;;4.80;;
48574;SDS011;34352;51.084;3.712;2023-04-24T08:46:34;12.07;;;4.90;;
48574;SDS011;34352;51.084;3.712;2023-04-24T08:49:01;9.88;;;4.50;;
48574;SDS011;34352;51.084;3.712;2023-04-24T08:51:27;8.23;;;4.10;;
48574;SDS011;34352;51.084;3.712;2023-04-24T08:53:55;6.50;;;4.25;;
48574;SDS011;34352;51.084;3.712;2023-04-24T08:56:22;8.13;;;4.70;;
48574;SDS011;34352;51.084;3.712;2023-04-24T08:58:51;11.65;;;4.82;;
48574;SDS011;34352;51.084;3.712;2023-04-24T09:01:23;11.60;;;5.65;;
48574;SDS011;34352;51.084;3.712;2023-04-24T09:03:50;15.50;;;7.10;;
48574;SDS011;34352;51.084;3.712;2023-04-24T09:06:18;13.63;;;5.70;;
48574;SDS011;34352;51.084;3.712;2023-04-24T09:08:46;14.85;;;6.13;;
48574;SDS011;34352;51.084;3.712;2023-04-24T09:11:15;12.70;;;5.57;;
48574;SDS011;34352;51.084;3.712;2023-04-24T09:13:46;13.20;;;5.57;;
48574;SDS011;34352;51.084;3.712;2023-04-24T09:16:13;9.10;;;4.95;;
48574;SDS011;34352;51.084;3.712;2023-04-24T09:18:42;11.40;;;5.40;;
48574;SDS011;34352;51.084;3.712;2023-04-24T09:21:09;13.35;;;5.82;;
48574;SDS011;34352;51.084;3.712;2023-04-24T09:26:42;12.70;;;5.80;;
48574;SDS011;34352;51.084;3.712;2023-04-24T09:29:20;9.98;;;5.38;;
48574;SDS011;34352;51.084;3.712;2023-04-24T09:31:47;12.80;;;4.95;;
48574;SDS011;34352;51.084;3.712;2023-04-24T09:34:14;9.52;;;4.47;;
48574;SDS011;34352;51.084;3.712;2023-04-24T09:36:43;11.55;;;4.70;;
48574;SDS011;34352;51.084;3.712;2023-04-24T09:39:15;10.10;;;5.07;;
48574;SDS011;34352;51.084;3.712;2023-04-24T09:44:18;9.90;;;5.25;;
48574;SDS011;34352;51.084;3.712;2023-04-24T09:52:04;11.30;;;5.20;;
48574;SDS011;34352;51.084;3.712;2023-04-24T09:54:31;10.75;;;5.15;;
48574;SDS011;34352;51.084;3.712;2023-04-24T09:56:58;10.15;;;5.40;;
48574;SDS011;34352;51.084;3.712;2023-04-24T09:59:25;12.57;;;5.32;;
48574;SDS011;34352;51.084;3.712;2023-04-24T10:01:52;13.63;;;5.18;;
48574;SDS011;34352;51.084;3.712;2023-04-24T10:04:18;12.27;;;4.78;;
48574;SDS011;34352;51.084;3.712;2023-04-24T10:06:46;7.93;;;4.30;;
48574;SDS011;34352;51.084;3.712;2023-04-24T10:09:14;8.93;;;4.70;;
48574;SDS011;34352;51.084;3.712;2023-04-24T10:11:44;10.07;;;4.20;;
48574;SDS011;34352;51.084;3.712;2023-04-24T10:14:13;8.57;;;4.75;;
48574;SDS011;34352;51.084;3.712;2023-04-24T10:16:43;8.30;;;4.55;;
48574;SDS011;34352;51.084;3.712;2023-04-24T10:19:11;9.30;;;4.78;;
48574;SDS011;34352;51.084;3.712;2023-04-24T10:21:38;7.30;;;4.68;;
48574;SDS011;34352;51.084;3.712;2023-04-24T10:24:12;11.38;;;4.72;;
48574;SDS011;34352;51.084;3.712;2023-04-24T10:26:38;8.40;;;4.28;;
48574;SDS011;34352;51.084;3.712;2023-04-24T10:29:06;13.15;;;5.05;;
48574;SDS011;34352;51.084;3.712;2023-04-24T10:31:37;12.13;;;5.13;;
48574;SDS011;34352;51.084;3.712;2023-04-24T10:34:04;9.45;;;4.63;;
48574;SDS011;34352;51.084;3.712;2023-04-24T10:36:31;10.55;;;4.20;;
48574;SDS011;34352;51.084;3.712;2023-04-24T10:38:59;9.88;;;4.55;;
48574;SDS011;34352;51.084;3.712;2023-04-24T10:41:27;11.95;;;4.85;;
48574;SDS011;34352;51.084;3.712;2023-04-24T10:44:05;13.05;;;4.93;;
48574;SDS011;34352;51.084;3.712;2023-04-24T10:46:40;10.40;;;4.68;;
48574;SDS011;34352;51.084;3.712;2023-04-24T10:49:10;9.25;;;4.38;;
48574;SDS011;34352;51.084;3.712;2023-04-24T10:51:47;8.73;;;4.75;;
48574;SDS011;34352;51.084;3.712;2023-04-24T11:00:10;9.20;;;4.47;;
48574;SDS011;34352;51.084;3.712;2023-04-24T11:02:47;8.82;;;4.57;;
48574;SDS011;34352;51.084;3.712;2023-04-24T11:05:15;9.23;;;4.20;;
48574;SDS011;34352;51.084;3.712;2023-04-24T11:10:44;6.88;;;3.88;;
48574;SDS011;34352;51.084;3.712;2023-04-24T11:13:20;6.95;;;3.80;;
48574;SDS011;34352;51.084;3.712;2023-04-24T11:16:34;8.85;;;4.20;;
48574;SDS011;34352;51.084;3.712;2023-04-24T11:18:37;10.23;;;4.30;;
48574;SDS011;34352;51.084;3.712;2023-04-24T11:21:11;8.85;;;4.07;;
48574;SDS011;34352;51.084;3.712;2023-04-24T11:23:39;8.20;;;3.75;;
48574;SDS011;34352;51.084;3.712;2023-04-24T11:26:12;11.35;;;4.47;;
48574;SDS011;34352;51.084;3.712;2023-04-24T11:28:47;6.97;;;4.00;;
48574;SDS011;34352;51.084;3.712;2023-04-24T11:34:06;8.18;;;3.55;;
48574;SDS011;34352;51.084;3.712;2023-04-24T11:36:36;14.23;;;5.70;;
48574;SDS011;34352;51.084;3.712;2023-04-24T11:39:02;7.32;;;3.88;;
48574;SDS011;34352;51.084;3.712;2023-04-24T11:41:28;5.43;;;3.30;;
48574;SDS011;34352;51.084;3.712;2023-04-24T11:43:54;9.20;;;3.63;;
48574;SDS011;34352;51.084;3.712;2023-04-24T11:46:21;5.85;;;3.28;;
48574;SDS011;34352;51.084;3.712;2023-04-24T11:48:47;5.25;;;3.38;;
48574;SDS011;34352;51.084;3.712;2023-04-24T11:51:13;7.53;;;3.88;;
48574;SDS011;34352;51.084;3.712;2023-04-24T11:53:40;6.72;;;3.08;;
48574;SDS011;34352;51.084;3.712;2023-04-24T11:56:08;10.70;;;3.50;;
48574;SDS011;34352;51.084;3.712;2023-04-24T11:58:38;12.02;;;3.58;;
48574;SDS011;34352;51.084;3.712;2023-04-24T12:01:04;8.10;;;3.63;;
48574;SDS011;34352;51.084;3.712;2023-04-24T12:03:30;7.35;;;3.38;;
48574;SDS011;34352;51.084;3.712;2023-04-24T12:06:06;7.78;;;3.00;;
48574;SDS011;34352;51.084;3.712;2023-04-24T12:08:36;7.30;;;3.50;;
48574;SDS011;34352;51.084;3.712;2023-04-24T12:11:04;5.95;;;2.83;;
48574;SDS011;34352;51.084;3.712;2023-04-24T12:13:32;8.02;;;2.30;;
48574;SDS011;34352;51.084;3.712;2023-04-24T12:15:59;5.00;;;2.30;;
48574;SDS011;34352;51.084;3.712;2023-04-24T12:18:27;5.45;;;2.50;;
48574;SDS011;34352;51.084;3.712;2023-04-24T12:20:53;5.88;;;2.45;;
48574;SDS011;34352;51.084;3.712;2023-04-24T12:23:34;5.63;;;2.67;;
48574;SDS011;34352;51.084;3.712;2023-04-24T12:26:01;7.35;;;2.55;;
48574;SDS011;34352;51.084;3.712;2023-04-24T12:28:40;3.47;;;2.10;;
48574;SDS011;34352;51.084;3.712;2023-04-24T12:31:05;5.22;;;2.45;;
48574;SDS011;34352;51.084;3.712;2023-04-24T12:33:32;7.18;;;1.90;;
48574;SDS011;34352;51.084;3.712;2023-04-24T12:36:00;4.22;;;2.08;;
48574;SDS011;34352;51.084;3.712;2023-04-24T12:38:27;6.50;;;2.50;;
48574;SDS011;34352;51.084;3.712;2023-04-24T12:41:05;4.38;;;1.63;;
48574;SDS011;34352;51.084;3.712;2023-04-24T12:43:36;3.90;;;1.85;;
48574;SDS011;34352;51.084;3.712;2023-04-24T12:46:03;8.95;;;2.33;;
48574;SDS011;34352;51.084;3.712;2023-04-24T12:48:33;4.32;;;1.83;;
48574;SDS011;34352;51.084;3.712;2023-04-24T12:50:58;4.93;;;1.95;;
48574;SDS011;34352;51.084;3.712;2023-04-24T12:53:28;4.32;;;1.70;;
48574;SDS011;34352;51.084;3.712;2023-04-24T12:55:56;5.97;;;2.15;;
48574;SDS011;34352;51.084;3.712;2023-04-24T12:58:21;5.18;;;1.88;;
48574;SDS011;34352;51.084;3.712;2023-04-24T13:00:47;3.75;;;1.70;;
48574;SDS011;34352;51.084;3.712;2023-04-24T13:03:13;5.72;;;1.77;;
48574;SDS011;34352;51.084;3.712;2023-04-24T13:05:39;3.05;;;1.50;;
48574;SDS011;34352;51.084;3.712;2023-04-24T13:08:08;5.38;;;1.90;;
48574;SDS011;34352;51.084;3.712;2023-04-24T13:10:34;3.75;;;1.38;;
48574;SDS011;34352;51.084;3.712;2023-04-24T13:13:00;3.03;;;1.50;;
48574;SDS011;34352;51.084;3.712;2023-04-24T13:15:26;3.50;;;1.65;;
48574;SDS011;34352;51.084;3.712;2023-04-24T13:17:52;1.88;;;1.30;;
48574;SDS011;34352;51.084;3.712;2023-04-24T13:20:20;4.70;;;1.60;;
48574;SDS011;34352;51.084;3.712;2023-04-24T13:22:45;3.70;;;1.77;;
48574;SDS011;34352;51.084;3.712;2023-04-24T13:25:12;3.25;;;1.65;;
48574;SDS011;34352;51.084;3.712;2023-04-24T13:27:39;2.35;;;1.52;;
48574;SDS011;34352;51.084;3.712;2023-04-24T13:30:05;4.50;;;1.77;;
48574;SDS011;34352;51.084;3.712;2023-04-24T13:32:33;3.78;;;1.60;;
48574;SDS011;34352;51.084;3.712;2023-04-24T13:35:00;3.22;;;1.50;;
48574;SDS011;34352;51.084;3.712;2023-04-24T13:37:30;7.25;;;2.30;;
48574;SDS011;34352;51.084;3.712;2023-04-24T13:39:56;4.50;;;1.70;;
48574;SDS011;34352;51.084;3.712;2023-04-24T13:42:23;3.83;;;2.17;;
48574;SDS011;34352;51.084;3.712;2023-04-24T13:44:50;4.00;;;1.65;;
48574;SDS011;34352;51.084;3.712;2023-04-24T13:47:18;4.53;;;1.80;;
48574;SDS011;34352;51.084;3.712;2023-04-24T13:49:43;2.33;;;1.20;;
48574;SDS011;34352;51.084;3.712;2023-04-24T13:52:09;4.65;;;1.30;;
48574;SDS011;34352;51.084;3.712;2023-04-24T13:54:35;3.95;;;1.45;;
48574;SDS011;34352;51.084;3.712;2023-04-24T13:57:03;3.17;;;1.67;;
48574;SDS011;34352;51.084;3.712;2023-04-24T14:01:58;4.28;;;1.92;;
48574;SDS011;34352;51.084;3.712;2023-04-24T14:04:25;3.28;;;1.60;;
48574;SDS011;34352;51.084;3.712;2023-04-24T14:06:52;2.17;;;1.45;;
48574;SDS011;34352;51.084;3.712;2023-04-24T14:09:17;3.15;;;1.60;;
48574;SDS011;34352;51.084;3.712;2023-04-24T14:11:43;3.70;;;1.80;;
48574;SDS011;34352;51.084;3.712;2023-04-24T14:14:09;3.40;;;2.05;;
48574;SDS011;34352;51.084;3.712;2023-04-24T14:16:34;5.60;;;2.33;;
48574;SDS011;34352;51.084;3.712;2023-04-24T14:19:01;4.82;;;2.15;;
48574;SDS011;34352;51.084;3.712;2023-04-24T14:21:27;5.78;;;1.90;;
48574;SDS011;34352;51.084;3.712;2023-04-24T14:26:23;5.45;;;1.48;;
48574;SDS011;34352;51.084;3.712;2023-04-24T14:28:50;5.45;;;1.70;;
48574;SDS011;34352;51.084;3.712;2023-04-24T14:31:17;2.65;;;1.60;;
48574;SDS011;34352;51.084;3.712;2023-04-24T14:33:43;3.78;;;1.90;;
48574;SDS011;34352;51.084;3.712;2023-04-24T14:36:11;3.72;;;1.90;;
48574;SDS011;34352;51.084;3.712;2023-04-24T14:38:36;4.25;;;1.90;;
48574;SDS011;34352;51.084;3.712;2023-04-24T14:41:03;3.20;;;1.85;;
48574;SDS011;34352;51.084;3.712;2023-04-24T14:43:35;6.32;;;2.50;;
48574;SDS011;34352;51.084;3.712;2023-04-24T14:46:02;4.80;;;1.90;;
48574;SDS011;34352;51.084;3.712;2023-04-24T14:48:28;4.53;;;2.30;;
48574;SDS011;34352;51.084;3.712;2023-04-24T14:50:54;5.60;;;2.85;;
48574;SDS011;34352;51.084;3.712;2023-04-24T14:53:28;4.22;;;2.47;;
48574;SDS011;34352;51.084;3.712;2023-04-24T14:55:53;7.03;;;3.22;;
48574;SDS011;34352;51.084;3.712;2023-04-24T14:58:20;4.38;;;2.75;;
48574;SDS011;34352;51.084;3.712;2023-04-24T15:00:46;5.55;;;2.30;;
48574;SDS011;34352;51.084;3.712;2023-04-24T15:03:14;3.50;;;2.28;;
48574;SDS011;34352;51.084;3.712;2023-04-24T15:05:40;7.30;;;2.65;;
48574;SDS011;34352;51.084;3.712;2023-04-24T15:08:05;4.00;;;2.40;;
48574;SDS011;34352;51.084;3.712;2023-04-24T15:10:31;4.63;;;2.60;;
48574;SDS011;34352;51.084;3.712;2023-04-24T15:13:03;6.32;;;3.33;;